createdAt,value
2017-08-20T00:00:02.674Z,14.77
2017-08-20T00:00:06.911Z,14.76
2017-08-20T00:00:11.249Z,14.76
2017-08-20T00:00:15.477Z,14.76
2017-08-20T00:00:19.975Z,14.77
2017-08-20T00:00:24.423Z,14.76
2017-08-20T00:00:28.762Z,14.77
2017-08-20T00:00:32.998Z,14.76
2017-08-20T00:00:37.457Z,14.77
2017-08-20T00:00:41.686Z,14.76
2017-08-20T00:00:46.042Z,14.77
2017-08-20T00:00:50.409Z,14.77
2017-08-20T00:00:54.883Z,14.77
2017-08-20T00:00:59.238Z,14.77
2017-08-20T00:01:03.584Z,14.77
2017-08-20T00:01:07.951Z,14.76
2017-08-20T00:01:12.417Z,14.77
2017-08-20T00:01:16.655Z,14.77
2017-08-20T00:01:21.122Z,14.77
2017-08-20T00:01:25.609Z,14.78
2017-08-20T00:01:29.958Z,14.78
2017-08-20T00:01:34.317Z,14.78
2017-08-20T00:01:38.430Z,14.77
2017-08-20T00:01:42.903Z,14.77
2017-08-20T00:01:47.117Z,14.78
2017-08-20T00:01:51.457Z,14.78
2017-08-20T00:01:55.795Z,14.77
2017-08-20T00:02:00.028Z,14.77
2017-08-20T00:02:04.128Z,14.78
2017-08-20T00:02:08.590Z,14.78
2017-08-20T00:02:12.826Z,14.78
2017-08-20T00:02:17.182Z,14.77
2017-08-20T00:02:21.294Z,14.78
2017-08-20T00:02:25.522Z,14.78
2017-08-20T00:02:29.536Z,14.78
2017-08-20T00:02:33.658Z,14.78
2017-08-20T00:02:38.117Z,14.78
2017-08-20T00:02:42.455Z,14.77
2017-08-20T00:02:46.684Z,14.77
2017-08-20T00:02:50.919Z,14.78
2017-08-20T00:02:55.274Z,14.77
2017-08-20T00:02:59.612Z,14.78
2017-08-20T00:03:03.842Z,14.78
2017-08-20T00:03:08.067Z,14.78
2017-08-20T00:03:12.532Z,14.78
2017-08-20T00:03:16.990Z,14.78
2017-08-20T00:03:21.113Z,14.77
2017-08-20T00:03:25.576Z,14.78
2017-08-20T00:03:29.914Z,14.78
2017-08-20T00:03:34.145Z,14.78
2017-08-20T00:03:38.632Z,14.78
2017-08-20T00:03:42.882Z,14.77
2017-08-20T00:03:47.225Z,14.78
2017-08-20T00:03:51.442Z,14.78
2017-08-20T00:03:55.782Z,14.78
2017-08-20T00:04:00.038Z,14.78
2017-08-20T00:04:04.143Z,14.78
2017-08-20T00:04:08.148Z,14.79
2017-08-20T00:04:12.494Z,14.78
2017-08-20T00:04:16.867Z,14.78
2017-08-20T00:04:21.209Z,14.78
2017-08-20T00:04:25.689Z,14.78
2017-08-20T00:04:30.043Z,14.78
2017-08-20T00:04:34.383Z,14.78
2017-08-20T00:04:38.857Z,14.78
2017-08-20T00:04:43.088Z,14.78
2017-08-20T00:04:47.565Z,14.77
2017-08-20T00:04:52.046Z,14.78
2017-08-20T00:04:56.517Z,14.79
2017-08-20T00:05:00.977Z,14.79
2017-08-20T00:05:05.217Z,14.78
2017-08-20T00:05:09.445Z,14.78
2017-08-20T00:05:13.557Z,14.79
2017-08-20T00:05:18.009Z,14.78
2017-08-20T00:05:22.481Z,14.79
2017-08-20T00:05:26.967Z,14.78
2017-08-20T00:05:31.201Z,14.79
2017-08-20T00:05:35.664Z,14.79
2017-08-20T00:05:40.130Z,14.78
2017-08-20T00:05:44.267Z,14.79
2017-08-20T00:05:48.615Z,14.78
2017-08-20T00:05:53.070Z,14.79
2017-08-20T00:05:57.429Z,14.78
2017-08-20T00:06:02.042Z,14.79
2017-08-20T00:06:06.394Z,14.79
2017-08-20T00:06:10.500Z,14.79
2017-08-20T00:06:14.732Z,14.78
2017-08-20T00:06:19.215Z,14.79
2017-08-20T00:06:23.449Z,14.79
2017-08-20T00:06:27.901Z,14.78
2017-08-20T00:06:32.138Z,14.79
2017-08-20T00:06:36.614Z,14.79
2017-08-20T00:06:41.077Z,14.79
2017-08-20T00:06:45.312Z,14.78
2017-08-20T00:06:49.797Z,14.79
2017-08-20T00:06:54.149Z,14.8
2017-08-20T00:06:58.613Z,14.8
2017-08-20T00:07:02.966Z,14.79
2017-08-20T00:07:07.214Z,14.79
2017-08-20T00:07:11.352Z,14.79
2017-08-20T00:07:15.709Z,14.79
2017-08-20T00:07:20.054Z,14.78
2017-08-20T00:07:24.407Z,14.8
2017-08-20T00:07:28.882Z,14.79
2017-08-20T00:07:33.000Z,14.79
2017-08-20T00:07:37.471Z,14.79
2017-08-20T00:07:41.810Z,14.79
2017-08-20T00:07:45.916Z,14.79
2017-08-20T00:07:50.270Z,14.79
2017-08-20T00:07:54.621Z,14.79
2017-08-20T00:07:58.964Z,14.79
2017-08-20T00:08:03.325Z,14.79
2017-08-20T00:08:07.672Z,14.79
2017-08-20T00:08:12.131Z,14.79
2017-08-20T00:08:16.459Z,14.79
2017-08-20T00:08:20.689Z,14.79
2017-08-20T00:08:25.153Z,14.79
2017-08-20T00:08:29.634Z,14.79
2017-08-20T00:08:33.751Z,14.8
2017-08-20T00:08:38.227Z,14.79
2017-08-20T00:08:42.589Z,14.8
2017-08-20T00:08:46.941Z,14.8
2017-08-20T00:08:51.382Z,14.8
2017-08-20T00:08:55.352Z,14.79
2017-08-20T00:08:59.746Z,14.8
2017-08-20T00:09:04.093Z,14.79
2017-08-20T00:09:08.445Z,14.8
2017-08-20T00:09:12.812Z,14.81
2017-08-20T00:09:17.175Z,14.8
2017-08-20T00:09:21.642Z,14.8
2017-08-20T00:09:26.111Z,14.8
2017-08-20T00:09:30.457Z,14.8
2017-08-20T00:09:34.561Z,14.8
2017-08-20T00:09:39.025Z,14.81
2017-08-20T00:09:43.124Z,14.8
2017-08-20T00:09:47.480Z,14.8
2017-08-20T00:09:51.704Z,14.8
2017-08-20T00:09:56.038Z,14.81
2017-08-20T00:10:00.504Z,14.8
2017-08-20T00:10:05.047Z,14.8
2017-08-20T00:10:09.271Z,14.8
2017-08-20T00:10:13.384Z,14.8
2017-08-20T00:10:17.732Z,14.81
2017-08-20T00:10:22.076Z,14.81
2017-08-20T00:10:26.127Z,14.8
2017-08-20T00:10:30.464Z,14.8
2017-08-20T00:10:34.707Z,14.8
2017-08-20T00:10:39.074Z,14.81
2017-08-20T00:10:43.546Z,14.81
2017-08-20T00:10:47.642Z,14.8
2017-08-20T00:10:51.749Z,14.81
2017-08-20T00:10:56.224Z,14.8
2017-08-20T00:11:00.456Z,14.82
2017-08-20T00:11:04.920Z,14.81
2017-08-20T00:11:09.396Z,14.81
2017-08-20T00:11:13.636Z,14.81
2017-08-20T00:11:18.135Z,14.81
2017-08-20T00:11:22.376Z,14.81
2017-08-20T00:11:26.842Z,14.8
2017-08-20T00:11:31.073Z,14.81
2017-08-20T00:11:35.290Z,14.81
2017-08-20T00:11:39.756Z,14.81
2017-08-20T00:11:44.089Z,14.8
2017-08-20T00:11:48.349Z,14.81
2017-08-20T00:11:52.706Z,14.81
2017-08-20T00:11:57.052Z,14.8
2017-08-20T00:12:01.513Z,14.81
2017-08-20T00:12:05.856Z,14.81
2017-08-20T00:12:10.231Z,14.81
2017-08-20T00:12:14.585Z,14.81
2017-08-20T00:12:18.933Z,14.81
2017-08-20T00:12:23.262Z,14.81
2017-08-20T00:12:27.749Z,14.82
2017-08-20T00:12:31.861Z,14.81
2017-08-20T00:12:36.210Z,14.81
2017-08-20T00:12:40.687Z,14.81
2017-08-20T00:12:45.044Z,14.82
2017-08-20T00:12:49.518Z,14.82
2017-08-20T00:12:53.980Z,14.81
2017-08-20T00:12:58.317Z,14.81
2017-08-20T00:13:03.099Z,14.82
2017-08-20T00:13:07.454Z,14.82
2017-08-20T00:13:11.688Z,14.82
2017-08-20T00:13:15.800Z,14.82
2017-08-20T00:13:20.306Z,14.82
2017-08-20T00:13:24.644Z,14.82
2017-08-20T00:13:29.002Z,14.82
2017-08-20T00:13:33.129Z,14.82
2017-08-20T00:13:37.509Z,14.82
2017-08-20T00:13:41.766Z,14.83
2017-08-20T00:13:46.135Z,14.82
2017-08-20T00:13:50.287Z,14.82
2017-08-20T00:13:54.803Z,14.82
2017-08-20T00:13:59.274Z,14.82
2017-08-20T00:14:03.740Z,14.82
2017-08-20T00:14:08.109Z,14.82
2017-08-20T00:14:12.573Z,14.82
2017-08-20T00:14:16.918Z,14.82
2017-08-20T00:14:21.264Z,14.81
2017-08-20T00:14:25.493Z,14.82
2017-08-20T00:14:29.961Z,14.83
2017-08-20T00:14:34.308Z,14.82
2017-08-20T00:14:38.534Z,14.82
2017-08-20T00:14:42.911Z,14.82
2017-08-20T00:14:47.407Z,14.83
2017-08-20T00:14:51.741Z,14.83
2017-08-20T00:14:56.202Z,14.83
2017-08-20T00:15:00.557Z,14.82
2017-08-20T00:15:05.190Z,14.83
2017-08-20T00:15:09.546Z,14.83
2017-08-20T00:15:13.651Z,14.83
2017-08-20T00:15:18.001Z,14.82
2017-08-20T00:15:22.490Z,14.83
2017-08-20T00:15:26.841Z,14.82
2017-08-20T00:15:31.206Z,14.83
2017-08-20T00:15:35.552Z,14.82
2017-08-20T00:15:39.557Z,14.82
2017-08-20T00:15:44.023Z,14.83
2017-08-20T00:15:48.368Z,14.82
2017-08-20T00:15:52.734Z,14.82
2017-08-20T00:15:57.252Z,14.83
2017-08-20T00:16:01.984Z,14.82
2017-08-20T00:16:06.330Z,14.83
2017-08-20T00:16:10.570Z,14.83
2017-08-20T00:16:14.785Z,14.83
2017-08-20T00:16:19.013Z,14.82
2017-08-20T00:16:23.351Z,14.82
2017-08-20T00:16:27.574Z,14.83
2017-08-20T00:16:32.047Z,14.83
2017-08-20T00:16:36.283Z,14.84
2017-08-20T00:16:40.405Z,14.83
2017-08-20T00:16:44.629Z,14.83
2017-08-20T00:16:49.105Z,14.83
2017-08-20T00:16:53.441Z,14.82
2017-08-20T00:16:57.670Z,14.83
2017-08-20T00:17:02.066Z,14.83
2017-08-20T00:17:06.434Z,14.82
2017-08-20T00:17:10.666Z,14.83
2017-08-20T00:17:14.763Z,14.82
2017-08-20T00:17:19.242Z,14.82
2017-08-20T00:17:23.713Z,14.82
2017-08-20T00:17:27.939Z,14.83
2017-08-20T00:17:32.405Z,14.82
2017-08-20T00:17:36.650Z,14.83
2017-08-20T00:17:40.878Z,14.82
2017-08-20T00:17:44.970Z,14.82
2017-08-20T00:17:49.426Z,14.82
2017-08-20T00:17:53.785Z,14.82
2017-08-20T00:17:58.237Z,14.82
2017-08-20T00:18:02.839Z,14.81
2017-08-20T00:18:07.169Z,14.82
2017-08-20T00:18:11.403Z,14.82
2017-08-20T00:18:15.625Z,14.81
2017-08-20T00:18:19.979Z,14.82
2017-08-20T00:18:24.343Z,14.81
2017-08-20T00:18:28.813Z,14.81
2017-08-20T00:18:32.930Z,14.81
2017-08-20T00:18:37.398Z,14.82
2017-08-20T00:18:41.855Z,14.81
2017-08-20T00:18:46.203Z,14.81
2017-08-20T00:18:50.544Z,14.81
2017-08-20T00:18:54.891Z,14.81
2017-08-20T00:18:59.252Z,14.81
2017-08-20T00:19:03.607Z,14.81
2017-08-20T00:19:08.068Z,14.82
2017-08-20T00:19:12.537Z,14.81
2017-08-20T00:19:17.011Z,14.81
2017-08-20T00:19:21.243Z,14.81
2017-08-20T00:19:25.694Z,14.81
2017-08-20T00:19:30.030Z,14.81
2017-08-20T00:19:34.495Z,14.81
2017-08-20T00:19:38.844Z,14.81
2017-08-20T00:19:43.068Z,14.81
2017-08-20T00:19:47.526Z,14.8
2017-08-20T00:19:51.998Z,14.81
2017-08-20T00:19:56.363Z,14.81
2017-08-20T00:20:00.831Z,14.81
2017-08-20T00:20:04.943Z,14.81
2017-08-20T00:20:09.434Z,14.81
2017-08-20T00:20:13.924Z,14.81
2017-08-20T00:20:18.156Z,14.81
2017-08-20T00:20:22.396Z,14.81
2017-08-20T00:20:26.746Z,14.81
2017-08-20T00:20:30.990Z,14.81
2017-08-20T00:20:35.322Z,14.8
2017-08-20T00:20:39.792Z,14.81
2017-08-20T00:20:44.143Z,14.8
2017-08-20T00:20:48.610Z,14.81
2017-08-20T00:20:52.841Z,14.8
2017-08-20T00:20:57.305Z,14.81
2017-08-20T00:21:01.660Z,14.8
2017-08-20T00:21:05.893Z,14.8
2017-08-20T00:21:10.358Z,14.8
2017-08-20T00:21:14.834Z,14.81
2017-08-20T00:21:18.951Z,14.81
2017-08-20T00:21:23.432Z,14.8
2017-08-20T00:21:27.884Z,14.8
2017-08-20T00:21:32.247Z,14.8
2017-08-20T00:21:36.504Z,14.8
2017-08-20T00:21:40.859Z,14.8
2017-08-20T00:21:45.083Z,14.8
2017-08-20T00:21:49.541Z,14.8
2017-08-20T00:21:54.013Z,14.8
2017-08-20T00:21:58.480Z,14.81
2017-08-20T00:22:02.821Z,14.79
2017-08-20T00:22:06.928Z,14.8
2017-08-20T00:22:11.282Z,14.8
2017-08-20T00:22:15.754Z,14.8
2017-08-20T00:22:20.095Z,14.8
2017-08-20T00:22:24.196Z,14.8
2017-08-20T00:22:28.663Z,14.8
2017-08-20T00:22:33.002Z,14.8
2017-08-20T00:22:37.354Z,14.8
2017-08-20T00:22:41.700Z,14.79
2017-08-20T00:22:45.952Z,14.8
2017-08-20T00:22:50.410Z,14.8
2017-08-20T00:22:54.743Z,14.8
2017-08-20T00:22:59.104Z,14.8
2017-08-20T00:23:03.469Z,14.8
2017-08-20T00:23:07.929Z,14.8
2017-08-20T00:23:12.395Z,14.8
2017-08-20T00:23:16.866Z,14.8
2017-08-20T00:23:21.264Z,14.81
2017-08-20T00:23:25.596Z,14.8
2017-08-20T00:23:30.060Z,14.8
2017-08-20T00:23:34.304Z,14.8
2017-08-20T00:23:38.772Z,14.79
2017-08-20T00:23:42.985Z,14.79
2017-08-20T00:23:47.455Z,14.8
2017-08-20T00:23:51.797Z,14.79
2017-08-20T00:23:56.141Z,14.79
2017-08-20T00:24:00.378Z,14.8
2017-08-20T00:24:04.726Z,14.8
2017-08-20T00:24:09.208Z,14.8
2017-08-20T00:24:13.469Z,14.8
2017-08-20T00:24:17.926Z,14.79
2017-08-20T00:24:22.165Z,14.8
2017-08-20T00:24:26.395Z,14.8
2017-08-20T00:24:30.888Z,14.8
2017-08-20T00:24:35.227Z,14.8
2017-08-20T00:24:39.568Z,14.79
2017-08-20T00:24:43.919Z,14.8
2017-08-20T00:24:48.055Z,14.8
2017-08-20T00:24:52.405Z,14.8
2017-08-20T00:24:56.905Z,14.8
2017-08-20T00:25:01.240Z,14.79
2017-08-20T00:25:06.060Z,14.8
2017-08-20T00:25:10.411Z,14.8
2017-08-20T00:25:14.764Z,14.79
2017-08-20T00:25:19.231Z,14.79
2017-08-20T00:25:23.581Z,14.8
2017-08-20T00:25:27.936Z,14.8
2017-08-20T00:25:32.319Z,14.8
2017-08-20T00:25:36.557Z,14.79
2017-08-20T00:25:40.911Z,14.8
2017-08-20T00:25:45.292Z,14.81
2017-08-20T00:25:49.677Z,14.8
2017-08-20T00:25:54.028Z,14.8
2017-08-20T00:25:58.491Z,14.8
2017-08-20T00:26:02.742Z,14.8
2017-08-20T00:26:07.237Z,14.8
2017-08-20T00:26:11.720Z,14.8
2017-08-20T00:26:16.197Z,14.8
2017-08-20T00:26:20.554Z,14.8
2017-08-20T00:26:24.792Z,14.8
2017-08-20T00:26:29.274Z,14.8
2017-08-20T00:26:33.643Z,14.8
2017-08-20T00:26:38.120Z,14.8
2017-08-20T00:26:42.356Z,14.8
2017-08-20T00:26:46.601Z,14.8
2017-08-20T00:26:50.965Z,14.79
2017-08-20T00:26:55.311Z,14.81
2017-08-20T00:26:59.646Z,14.8
2017-08-20T00:27:04.160Z,14.8
2017-08-20T00:27:08.511Z,14.8
2017-08-20T00:27:12.879Z,14.8
2017-08-20T00:27:17.354Z,14.8
2017-08-20T00:27:21.698Z,14.79
2017-08-20T00:27:26.057Z,14.8
2017-08-20T00:27:30.287Z,14.8
2017-08-20T00:27:34.515Z,14.79
2017-08-20T00:27:38.976Z,14.8
2017-08-20T00:27:43.329Z,14.8
2017-08-20T00:27:47.338Z,14.8
2017-08-20T00:27:51.700Z,14.8
2017-08-20T00:27:56.061Z,14.8
2017-08-20T00:28:00.429Z,14.8
2017-08-20T00:28:04.749Z,14.8
2017-08-20T00:28:09.221Z,14.8
2017-08-20T00:28:13.466Z,14.8
2017-08-20T00:28:17.932Z,14.8
2017-08-20T00:28:22.168Z,14.8
2017-08-20T00:28:26.400Z,14.8
2017-08-20T00:28:30.878Z,14.8
2017-08-20T00:28:35.232Z,14.8
2017-08-20T00:28:39.565Z,14.8
2017-08-20T00:28:43.913Z,14.8
2017-08-20T00:28:48.296Z,14.79
2017-08-20T00:28:52.644Z,14.79
2017-08-20T00:28:57.108Z,14.79
2017-08-20T00:29:01.555Z,14.8
2017-08-20T00:29:06.034Z,14.8
2017-08-20T00:29:10.374Z,14.8
2017-08-20T00:29:14.730Z,14.8
2017-08-20T00:29:18.968Z,14.8
2017-08-20T00:29:23.313Z,14.8
2017-08-20T00:29:27.775Z,14.8
2017-08-20T00:29:32.023Z,14.8
2017-08-20T00:29:36.370Z,14.8
2017-08-20T00:29:40.728Z,14.8
2017-08-20T00:29:44.958Z,14.79
2017-08-20T00:29:49.190Z,14.8
2017-08-20T00:29:53.429Z,14.8
2017-08-20T00:29:57.670Z,14.8
2017-08-20T00:30:02.130Z,14.81
2017-08-20T00:30:06.588Z,14.8
2017-08-20T00:30:10.941Z,14.8
2017-08-20T00:30:15.300Z,14.79
2017-08-20T00:30:19.642Z,14.8
2017-08-20T00:30:23.856Z,14.8
2017-08-20T00:30:28.208Z,14.8
2017-08-20T00:30:32.432Z,14.8
2017-08-20T00:30:36.787Z,14.79
2017-08-20T00:30:41.131Z,14.81
2017-08-20T00:30:45.245Z,14.79
2017-08-20T00:30:49.737Z,14.8
2017-08-20T00:30:54.087Z,14.8
2017-08-20T00:30:58.308Z,14.8
2017-08-20T00:31:02.787Z,14.8
2017-08-20T00:31:07.261Z,14.8
2017-08-20T00:31:11.602Z,14.81
2017-08-20T00:31:15.945Z,14.8
2017-08-20T00:31:20.305Z,14.8
2017-08-20T00:31:24.529Z,14.8
2017-08-20T00:31:28.869Z,14.8
2017-08-20T00:31:32.985Z,14.8
2017-08-20T00:31:37.357Z,14.8
2017-08-20T00:31:41.690Z,14.79
2017-08-20T00:31:46.041Z,14.8
2017-08-20T00:31:50.274Z,14.8
2017-08-20T00:31:54.752Z,14.8
2017-08-20T00:31:59.227Z,14.8
2017-08-20T00:32:03.706Z,14.8
2017-08-20T00:32:07.816Z,14.8
2017-08-20T00:32:12.299Z,14.79
2017-08-20T00:32:16.753Z,14.8
2017-08-20T00:32:21.210Z,14.8
2017-08-20T00:32:25.558Z,14.79
2017-08-20T00:32:29.690Z,14.8
2017-08-20T00:32:33.687Z,14.8
2017-08-20T00:32:38.162Z,14.8
2017-08-20T00:32:42.273Z,14.78
2017-08-20T00:32:46.511Z,14.8
2017-08-20T00:32:50.855Z,14.8
2017-08-20T00:32:54.975Z,14.8
2017-08-20T00:32:59.350Z,14.8
2017-08-20T00:33:04.086Z,14.79
2017-08-20T00:33:08.547Z,14.79
2017-08-20T00:33:13.024Z,14.79
2017-08-20T00:33:17.386Z,14.79
2017-08-20T00:33:21.633Z,14.79
2017-08-20T00:33:26.097Z,14.79
2017-08-20T00:33:30.460Z,14.79
2017-08-20T00:33:34.846Z,14.78
2017-08-20T00:33:39.320Z,14.79
2017-08-20T00:33:43.302Z,14.79
2017-08-20T00:33:47.520Z,14.79
2017-08-20T00:33:51.762Z,14.79
2017-08-20T00:33:56.234Z,14.79
2017-08-20T00:34:00.694Z,14.79
2017-08-20T00:34:05.171Z,14.79
2017-08-20T00:34:09.537Z,14.78
2017-08-20T00:34:14.008Z,14.79
2017-08-20T00:34:18.480Z,14.79
2017-08-20T00:34:22.942Z,14.79
2017-08-20T00:34:27.188Z,14.79
2017-08-20T00:34:31.420Z,14.79
2017-08-20T00:34:35.637Z,14.78
2017-08-20T00:34:40.091Z,14.79
2017-08-20T00:34:43.993Z,14.78
2017-08-20T00:34:48.228Z,14.79
2017-08-20T00:34:52.697Z,14.79
2017-08-20T00:34:56.931Z,14.79
2017-08-20T00:35:01.278Z,14.78
2017-08-20T00:35:05.627Z,14.78
2017-08-20T00:35:10.077Z,14.78
2017-08-20T00:35:14.304Z,14.79
2017-08-20T00:35:18.649Z,14.79
2017-08-20T00:35:22.877Z,14.79
2017-08-20T00:35:27.100Z,14.77
2017-08-20T00:35:31.446Z,14.78
2017-08-20T00:35:35.800Z,14.77
2017-08-20T00:35:40.169Z,14.78
2017-08-20T00:35:44.280Z,14.78
2017-08-20T00:35:48.623Z,14.78
2017-08-20T00:35:52.988Z,14.78
2017-08-20T00:35:57.484Z,14.77
2017-08-20T00:36:01.710Z,14.78
2017-08-20T00:36:06.181Z,14.77
2017-08-20T00:36:10.294Z,14.77
2017-08-20T00:36:14.655Z,14.77
2017-08-20T00:36:18.872Z,14.78
2017-08-20T00:36:23.222Z,14.77
2017-08-20T00:36:27.702Z,14.77
2017-08-20T00:36:31.802Z,14.77
2017-08-20T00:36:36.026Z,14.77
2017-08-20T00:36:40.246Z,14.77
2017-08-20T00:36:44.604Z,14.77
2017-08-20T00:36:49.079Z,14.77
2017-08-20T00:36:53.414Z,14.76
2017-08-20T00:36:57.871Z,14.77
2017-08-20T00:37:02.697Z,14.75
2017-08-20T00:37:07.157Z,14.76
2017-08-20T00:37:11.525Z,14.76
2017-08-20T00:37:15.988Z,14.76
2017-08-20T00:37:20.339Z,14.76
2017-08-20T00:37:24.688Z,14.75
2017-08-20T00:37:28.807Z,14.76
2017-08-20T00:37:33.047Z,14.76
2017-08-20T00:37:37.314Z,14.74
2017-08-20T00:37:41.668Z,14.75
2017-08-20T00:37:45.908Z,14.75
2017-08-20T00:37:50.274Z,14.75
2017-08-20T00:37:54.521Z,14.74
2017-08-20T00:37:59.000Z,14.76
2017-08-20T00:38:03.471Z,14.75
2017-08-20T00:38:07.939Z,14.76
2017-08-20T00:38:12.434Z,14.74
2017-08-20T00:38:16.783Z,14.75
2017-08-20T00:38:20.997Z,14.74
2017-08-20T00:38:25.349Z,14.75
2017-08-20T00:38:29.586Z,14.74
2017-08-20T00:38:33.683Z,14.75
2017-08-20T00:38:37.904Z,14.74
2017-08-20T00:38:42.365Z,14.74
2017-08-20T00:38:46.589Z,14.73
2017-08-20T00:38:50.939Z,14.73
2017-08-20T00:38:55.303Z,14.73
2017-08-20T00:38:59.651Z,14.73
2017-08-20T00:39:04.127Z,14.74
2017-08-20T00:39:08.591Z,14.73
2017-08-20T00:39:12.825Z,14.73
2017-08-20T00:39:17.298Z,14.72
2017-08-20T00:39:21.768Z,14.72
2017-08-20T00:39:26.249Z,14.73
2017-08-20T00:39:30.716Z,14.72
2017-08-20T00:39:35.187Z,14.72
2017-08-20T00:39:39.541Z,14.72
2017-08-20T00:39:43.878Z,14.72
2017-08-20T00:39:48.351Z,14.72
2017-08-20T00:39:52.823Z,14.73
2017-08-20T00:39:57.071Z,14.72
2017-08-20T00:40:01.524Z,14.71
2017-08-20T00:40:05.996Z,14.71
2017-08-20T00:40:10.489Z,14.71
2017-08-20T00:40:14.966Z,14.71
2017-08-20T00:40:19.438Z,14.71
2017-08-20T00:40:23.794Z,14.71
2017-08-20T00:40:28.172Z,14.71
2017-08-20T00:40:32.403Z,14.71
2017-08-20T00:40:36.745Z,14.7
2017-08-20T00:40:40.985Z,14.7
2017-08-20T00:40:45.093Z,14.7
2017-08-20T00:40:49.438Z,14.7
2017-08-20T00:40:53.903Z,14.7
2017-08-20T00:40:58.019Z,14.71
2017-08-20T00:41:02.586Z,14.7
2017-08-20T00:41:07.060Z,14.7
2017-08-20T00:41:11.525Z,14.7
2017-08-20T00:41:16.016Z,14.7
2017-08-20T00:41:20.481Z,14.7
2017-08-20T00:41:24.943Z,14.69
2017-08-20T00:41:29.401Z,14.69
2017-08-20T00:41:33.781Z,14.69
2017-08-20T00:41:38.137Z,14.69
2017-08-20T00:41:42.130Z,14.69
2017-08-20T00:41:46.598Z,14.69
2017-08-20T00:41:51.060Z,14.69
2017-08-20T00:41:55.295Z,14.69
2017-08-20T00:41:59.649Z,14.69
2017-08-20T00:42:04.001Z,14.69
2017-08-20T00:42:08.481Z,14.69
2017-08-20T00:42:12.942Z,14.69
2017-08-20T00:42:17.403Z,14.69
2017-08-20T00:42:21.740Z,14.69
2017-08-20T00:42:26.085Z,14.68
2017-08-20T00:42:30.589Z,14.67
2017-08-20T00:42:34.814Z,14.69
2017-08-20T00:42:39.154Z,14.68
2017-08-20T00:42:43.511Z,14.68
2017-08-20T00:42:47.735Z,14.68
2017-08-20T00:42:51.987Z,14.68
2017-08-20T00:42:56.430Z,14.68
2017-08-20T00:43:00.911Z,14.68
2017-08-20T00:43:05.525Z,14.68
2017-08-20T00:43:09.870Z,14.68
2017-08-20T00:43:14.217Z,14.68
2017-08-20T00:43:18.680Z,14.67
2017-08-20T00:43:23.024Z,14.67
2017-08-20T00:43:27.494Z,14.67
2017-08-20T00:43:31.730Z,14.68
2017-08-20T00:43:35.983Z,14.67
2017-08-20T00:43:40.216Z,14.67
2017-08-20T00:43:44.451Z,14.67
2017-08-20T00:43:48.689Z,14.68
2017-08-20T00:43:52.811Z,14.67
2017-08-20T00:43:57.196Z,14.66
2017-08-20T00:44:01.421Z,14.66
2017-08-20T00:44:05.890Z,14.67
2017-08-20T00:44:10.361Z,14.67
2017-08-20T00:44:14.721Z,14.67
2017-08-20T00:44:18.959Z,14.67
2017-08-20T00:44:23.320Z,14.66
2017-08-20T00:44:27.547Z,14.66
2017-08-20T00:44:32.017Z,14.66
2017-08-20T00:44:36.234Z,14.66
2017-08-20T00:44:40.349Z,14.67
2017-08-20T00:44:44.350Z,14.66
2017-08-20T00:44:48.818Z,14.65
2017-08-20T00:44:53.165Z,14.66
2017-08-20T00:44:57.516Z,14.66
2017-08-20T00:45:02.002Z,14.65
2017-08-20T00:45:06.474Z,14.66
2017-08-20T00:45:10.939Z,14.66
2017-08-20T00:45:15.294Z,14.66
2017-08-20T00:45:19.756Z,14.66
2017-08-20T00:45:23.988Z,14.66
2017-08-20T00:45:28.090Z,14.66
2017-08-20T00:45:32.211Z,14.66
2017-08-20T00:45:36.567Z,14.66
2017-08-20T00:45:40.795Z,14.65
2017-08-20T00:45:44.900Z,14.65
2017-08-20T00:45:49.369Z,14.66
2017-08-20T00:45:53.708Z,14.65
2017-08-20T00:45:58.168Z,14.65
2017-08-20T00:46:02.622Z,14.66
2017-08-20T00:46:07.100Z,14.65
2017-08-20T00:46:11.453Z,14.66
2017-08-20T00:46:15.807Z,14.65
2017-08-20T00:46:20.264Z,14.65
2017-08-20T00:46:24.617Z,14.65
2017-08-20T00:46:28.948Z,14.66
2017-08-20T00:46:32.934Z,14.65
2017-08-20T00:46:37.151Z,14.66
2017-08-20T00:46:41.514Z,14.65
2017-08-20T00:46:45.859Z,14.65
2017-08-20T00:46:50.211Z,14.65
2017-08-20T00:46:54.666Z,14.64
2017-08-20T00:46:59.136Z,14.65
2017-08-20T00:47:03.554Z,14.64
2017-08-20T00:47:07.657Z,14.65
2017-08-20T00:47:12.133Z,14.65
2017-08-20T00:47:16.481Z,14.65
2017-08-20T00:47:20.960Z,14.65
2017-08-20T00:47:25.419Z,14.65
2017-08-20T00:47:29.773Z,14.66
2017-08-20T00:47:33.774Z,14.65
2017-08-20T00:47:37.996Z,14.65
2017-08-20T00:47:42.227Z,14.65
2017-08-20T00:47:46.569Z,14.65
2017-08-20T00:47:51.047Z,14.65
2017-08-20T00:47:55.500Z,14.66
2017-08-20T00:47:59.963Z,14.65
2017-08-20T00:48:04.307Z,14.64
2017-08-20T00:48:08.427Z,14.65
2017-08-20T00:48:12.878Z,14.65
2017-08-20T00:48:17.336Z,14.65
2017-08-20T00:48:21.690Z,14.65
2017-08-20T00:48:26.054Z,14.64
2017-08-20T00:48:30.394Z,14.65
2017-08-20T00:48:34.509Z,14.64
2017-08-20T00:48:38.858Z,14.65
2017-08-20T00:48:42.957Z,14.65
2017-08-20T00:48:47.094Z,14.64
2017-08-20T00:48:51.331Z,14.65
2017-08-20T00:48:55.790Z,14.64
2017-08-20T00:49:00.252Z,14.64
2017-08-20T00:49:04.498Z,14.65
2017-08-20T00:49:08.846Z,14.65
2017-08-20T00:49:13.314Z,14.65
2017-08-20T00:49:17.678Z,14.65
2017-08-20T00:49:22.133Z,14.64
2017-08-20T00:49:26.244Z,14.64
2017-08-20T00:49:30.350Z,14.64
2017-08-20T00:49:34.484Z,14.64
2017-08-20T00:49:38.955Z,14.64
2017-08-20T00:49:43.186Z,14.64
2017-08-20T00:49:47.419Z,14.65
2017-08-20T00:49:51.633Z,14.65
2017-08-20T00:49:55.989Z,14.65
2017-08-20T00:50:00.235Z,14.64
2017-08-20T00:50:04.469Z,14.65
2017-08-20T00:50:08.816Z,14.65
2017-08-20T00:50:13.272Z,14.65
2017-08-20T00:50:17.631Z,14.64
2017-08-20T00:50:21.987Z,14.65
2017-08-20T00:50:26.334Z,14.65
2017-08-20T00:50:30.679Z,14.65
2017-08-20T00:50:35.146Z,14.65
2017-08-20T00:50:39.626Z,14.65
2017-08-20T00:50:43.632Z,14.65
2017-08-20T00:50:47.964Z,14.65
2017-08-20T00:50:52.424Z,14.65
2017-08-20T00:50:56.763Z,14.65
2017-08-20T00:51:01.231Z,14.65
2017-08-20T00:51:05.584Z,14.65
2017-08-20T00:51:09.935Z,14.66
2017-08-20T00:51:14.400Z,14.65
2017-08-20T00:51:18.883Z,14.65
2017-08-20T00:51:23.372Z,14.66
2017-08-20T00:51:27.839Z,14.66
2017-08-20T00:51:32.199Z,14.66
2017-08-20T00:51:36.671Z,14.65
2017-08-20T00:51:40.797Z,14.66
2017-08-20T00:51:45.153Z,14.65
2017-08-20T00:51:49.399Z,14.66
2017-08-20T00:51:53.747Z,14.66
2017-08-20T00:51:57.983Z,14.65
2017-08-20T00:52:02.214Z,14.66
2017-08-20T00:52:06.671Z,14.66
2017-08-20T00:52:11.147Z,14.66
2017-08-20T00:52:15.503Z,14.66
2017-08-20T00:52:19.975Z,14.67
2017-08-20T00:52:24.201Z,14.66
2017-08-20T00:52:28.670Z,14.66
2017-08-20T00:52:33.029Z,14.66
2017-08-20T00:52:37.489Z,14.66
2017-08-20T00:52:41.841Z,14.66
2017-08-20T00:52:45.967Z,14.66
2017-08-20T00:52:50.325Z,14.66
2017-08-20T00:52:54.296Z,14.66
2017-08-20T00:52:58.652Z,14.66
2017-08-20T00:53:03.178Z,14.66
2017-08-20T00:53:07.645Z,14.66
2017-08-20T00:53:12.094Z,14.66
2017-08-20T00:53:16.542Z,14.66
2017-08-20T00:53:21.021Z,14.66
2017-08-20T00:53:25.365Z,14.66
2017-08-20T00:53:29.832Z,14.67
2017-08-20T00:53:34.222Z,14.67
2017-08-20T00:53:38.569Z,14.67
2017-08-20T00:53:43.032Z,14.66
2017-08-20T00:53:47.252Z,14.66
2017-08-20T00:53:51.719Z,14.66
2017-08-20T00:53:56.086Z,14.67
2017-08-20T00:54:00.554Z,14.67
2017-08-20T00:54:04.958Z,14.67
2017-08-20T00:54:09.204Z,14.67
2017-08-20T00:54:13.702Z,14.67
2017-08-20T00:54:18.060Z,14.67
2017-08-20T00:54:22.516Z,14.67
2017-08-20T00:54:26.628Z,14.67
2017-08-20T00:54:30.982Z,14.66
2017-08-20T00:54:35.331Z,14.67
2017-08-20T00:54:39.569Z,14.67
2017-08-20T00:54:43.556Z,14.67
2017-08-20T00:54:47.901Z,14.67
2017-08-20T00:54:52.118Z,14.67
2017-08-20T00:54:56.473Z,14.67
2017-08-20T00:55:00.934Z,14.68
2017-08-20T00:55:05.394Z,14.67
2017-08-20T00:55:09.729Z,14.68
2017-08-20T00:55:14.197Z,14.67
2017-08-20T00:55:18.419Z,14.67
2017-08-20T00:55:22.776Z,14.67
2017-08-20T00:55:27.254Z,14.68
2017-08-20T00:55:31.728Z,14.67
2017-08-20T00:55:36.087Z,14.68
2017-08-20T00:55:40.313Z,14.68
2017-08-20T00:55:44.643Z,14.68
2017-08-20T00:55:48.756Z,14.68
2017-08-20T00:55:53.002Z,14.68
2017-08-20T00:55:57.340Z,14.68
2017-08-20T00:56:01.676Z,14.68
2017-08-20T00:56:06.128Z,14.69
2017-08-20T00:56:10.602Z,14.68
2017-08-20T00:56:14.948Z,14.67
2017-08-20T00:56:19.296Z,14.67
2017-08-20T00:56:23.762Z,14.68